Race Results for…
Malibu International Marathon

November 10, 2013 presented by Race Day Timing and timed by Race Day Timing
Participants:
2407
Last Updated:
12/4/2013 11:08:38 PM
NOTE: The times for the half marathon have been adjusted down to reflect that the course was .38 of a mile long.
Stats

Leaderboards

Jump to a Leaderboard

FULL MARATHON

Male - Overall
Bib Name Gun Elapsed Chip Elapsed Pace City Age
1 1 GEORGE KITONGA 02:35:10 02:35:10 05:55 min/mile TIJUANA 34
2 657 RICARDO RAMIREZ-PACHECO 02:37:01 02:37:01 05:59 min/mile SUN VALLEY 42
3 615 SHAUN MAGUIRE 02:37:51 02:37:50 06:01 min/mile CORONA DEL MAR 27
Female - Overall
Bib Name Gun Elapsed Chip Elapsed Pace City Age
1 510 JESSICA STERN 03:02:14 03:02:03 06:56 min/mile SANTA ROSA VALLEY 24
2 553 TAMMARA FRANCIS 03:11:05 03:11:00 07:17 min/mile CALGARY 31
3 57 STEPHANIE WURTZ 03:12:33 03:12:29 07:20 min/mile COLORADO SPRINGS 31

HALF MARATHON

Male - Overall
Bib Name Gun Elapsed Chip Elapsed Pace City Age
1 3244 RICHARD ZARAZUA 01:12:18 01:12:18 05:31 min/mile PASADENA 23
2 910 JASON LEWIS 01:14:17 01:14:17 05:40 min/mile TARZANA 31
3 3272 SCOTT WANDZILALE 01:15:16 01:15:16 05:44 min/mile 30
Female - Overall
Bib Name Gun Elapsed Chip Elapsed Pace City Age
1 3245 TRACEE VAN DER WYK 01:19:30 01:19:29 06:04 min/mile TEMPLE CITY 22
2 3053 DINA KITAYAMA 01:23:23 01:23:21 06:21 min/mile LOS ANGELES 24
3 3026 REBECCA MCCULLOUGH 01:31:08 01:26:00 06:33 min/mile LOS ANGELES 27

SUPATHLON

Male - Overall
Bib Name Gun Elapsed Chip Elapsed Pace City Age
1 3877 PETER DEAVILA 01:27:40 01:27:40 06:44 min/mile 49
2 3873 JOE BURSCHINGER 01:38:57 01:38:57 07:36 min/mile LOS ANGELES 47
3 3874 MICHAEL KELLEY 01:39:30 01:39:30 07:39 min/mile SANTA MONICA 47
Female - Overall
Bib Name Gun Elapsed Chip Elapsed Pace City Age
1 3846 NANETTE BERCU 01:52:27 01:52:27 08:39 min/mile MALIBU 42
2 3876 KELLY MOTYKA 01:52:53 01:52:53 08:41 min/mile LONG BEACH 38
3 3871 EMILY DOLBER 01:56:07 01:56:07 08:55 min/mile SANTA MONICA 34

Overall Results

Tip: Slide the results table left and right to view more.
1869 entrants …
Half Marathon Results
Bib Name Age Gender Division City State Chip Elapsed Time Gun Elapsed Time Div Place Gender Place Age Place Pace
3244 RICHARD ZARAZUA 23 M HALF MARATHON PASADENA CA 01:12:18 01:12:18 0 0 O/A 05:31 min/mile
910 JASON LEWIS 31 M HALF MARATHON TARZANA CA 01:14:17 01:14:17 0 0 O/A 05:40 min/mile
3272 SCOTT WANDZILALE 30 M HALF MARATHON 01:15:16 01:15:16 0 0 O/A 05:44 min/mile
3225 LARIOS X 40 M HALF MARATHON GRANADA HILLS MA 01:15:38 01:15:38 1 1 1 05:46 min/mile
3105 ADAM HENRY 28 M HALF MARATHON LOS ANGELES CA 01:17:54 01:17:54 2 2 1 05:56 min/mile
904 SHAWN WACO 42 M HALF MARATHON SANTA MONICA CA 01:18:09 01:18:09 3 3 2 05:57 min/mile
916 RUDY TOVAR 33 M HALF MARATHON SALINAS CA 01:19:22 01:19:22 4 4 1 06:03 min/mile
3245 TRACEE VAN DER WYK 22 F HALF MARATHON TEMPLE CITY CA 01:19:29 01:19:30 0 0 O/A 06:04 min/mile
2704 ANDREW KAEHR 23 M HALF MARATHON TEMPE AZ 01:19:45 01:19:45 5 5 1 06:05 min/mile
2013 KEVIN DEAN 27 M HALF MARATHON GRANVILLE OH 01:19:54 01:19:54 6 6 2 06:05 min/mile
902 JENSON BUTTON 33 M HALF MARATHON GUERNSEY 01:21:53 01:21:53 7 7 2 06:15 min/mile
3053 DINA KITAYAMA 24 F HALF MARATHON LOS ANGELES CA 01:23:21 01:23:23 0 0 O/A 06:21 min/mile
462 MATTHEW MEINEMA 27 M HALF MARATHON 01:24:29 01:24:31 8 8 3 06:26 min/mile
2909 NICHOLAS KATZ 23 M HALF MARATHON MALIBU CA 01:24:32 01:24:32 9 9 2 06:27 min/mile
3026 REBECCA MCCULLOUGH 27 F HALF MARATHON LOS ANGELES CA 01:26:00 01:31:08 0 0 O/A 06:33 min/mile
2765 YU YUMOTO 35 M HALF MARATHON 01:26:21 01:26:21 10 10 1 06:35 min/mile
915 AINSLEE SHAFTO 32 M HALF MARATHON ALTRINCHAM CHESHIRE 01:27:15 01:27:23 11 11 3 06:39 min/mile
2023 TED MCDONALD 43 M HALF MARATHON 01:27:34 01:27:38 12 12 3 06:41 min/mile
3185 MARK GLOVER 40 M HALF MARATHON LOS ANGELES CA 01:28:11 01:28:22 13 13 4 06:43 min/mile
3258 ALEC WILIMOSKY 16 M HALF MARATHON MALIBU CA 01:28:41 01:28:42 14 14 1 06:46 min/mile
2782 JANO SOTO 43 M HALF MARATHON VERACRUZ 01:28:44 01:28:44 15 15 5 06:46 min/mile
906 MIKE GOBELI 33 M HALF MARATHON LOS ANGELES CA 01:28:48 01:28:49 16 16 4 06:46 min/mile
2429 SAMUEL MINER 29 M HALF MARATHON LOS ANGELES CA 01:28:48 01:28:51 17 17 4 06:46 min/mile
1329 YARIV MILCHAN 44 M HALF MARATHON LOS ANGELES CA 01:28:49 01:28:50 18 18 6 06:46 min/mile
905 CRISPIN LAZARIT 39 M HALF MARATHON LOS ANGELES CA 01:28:50 01:28:50 19 19 2 06:46 min/mile
3240 CLEMENTINE ALVAREZ 36 M HALF MARATHON 01:30:25 01:30:27 20 20 3 06:54 min/mile
2999 MICHAEL COLLIER 33 M HALF MARATHON GUERNSEY 01:30:30 01:30:30 21 21 5 06:54 min/mile
1912 RYAN WARD 32 M HALF MARATHON LAS VEGAS NV 01:30:37 01:31:12 22 22 6 06:55 min/mile
981 VINH NGO 40 M HALF MARATHON MOUNTAIN VIEW CA 01:30:37 01:30:38 23 23 7 06:55 min/mile
911 CARLOS TOVAR 33 M HALF MARATHON LOS ANGELES CA 01:30:39 01:30:45 24 24 7 06:55 min/mile
931 GREG SAIKI 34 M HALF MARATHON BAKERSFIELD CA 01:30:41 01:30:52 25 25 8 06:55 min/mile
1448 RON CAREY 38 M HALF MARATHON CULVER CITY CA 01:30:44 01:33:03 26 26 4 06:55 min/mile
3068 GARRETT D'ALESSANDRO 55 M HALF MARATHON CALIFON NJ 01:30:54 01:35:07 27 27 1 06:56 min/mile
2984 JEREMY HANSEN 27 M HALF MARATHON SHORELINE WA 01:31:07 01:31:07 28 28 5 06:57 min/mile
2919 OCTAVIO ESPINOZA 43 M HALF MARATHON 01:31:28 01:31:41 29 29 8 06:58 min/mile
2791 SARAH ATTAR 21 F HALF MARATHON ESCONDIDO CA 01:31:34 01:31:36 30 1 1 06:59 min/mile
2080 STEPHEN SHIRK 24 M HALF MARATHON SANTA MONICA CA 01:32:20 01:34:24 31 30 3 07:02 min/mile
1559 BENJAMIN KLAINER 29 M HALF MARATHON LOS ANGELES CA 01:32:30 01:33:04 32 31 6 07:03 min/mile
3235 FOLCO TERZANI 44 M HALF MARATHON MALIBU CA 01:32:45 01:32:50 33 32 9 07:04 min/mile
2303 TIMOTHY SMITH 24 M HALF MARATHON MARINA DEL REY CA 01:32:47 01:33:44 34 33 4 07:04 min/mile
3146 NOAH MANN 29 M HALF MARATHON LOS ANGELES CA 01:32:48 01:33:40 35 34 7 07:05 min/mile
1224 ROLF DENSING 54 M HALF MARATHON RHEINBREITBACH 01:32:55 01:33:03 36 35 1 07:05 min/mile
2664 RYAN KEPLER 24 M HALF MARATHON LEWISTOWN MT 01:33:01 01:36:22 37 36 5 07:06 min/mile
3212 GONZALES ALFREDO 14 M HALF MARATHON PALM SPRING CA 01:33:05 01:33:05 38 37 1 07:06 min/mile
2895 OLIVER SHAW 31 M HALF MARATHON LOS ANGELES CA 01:33:06 01:33:21 39 38 9 07:06 min/mile
1090 ELIZABETH LLUCH 52 F HALF MARATHON AGORA HILLS CA 01:33:30 01:33:32 40 2 1 07:08 min/mile
1557 ALLISON JORGENSEN 25 F HALF MARATHON SEATTLE WA 01:33:41 01:33:41 41 3 1 07:09 min/mile
2687 STEVEN STENBERG 53 M HALF MARATHON NOVATO CA 01:33:56 01:33:58 42 39 2 07:10 min/mile
2961 GARETH JONES 32 M HALF MARATHON 01:34:11 01:34:15 43 40 10 07:11 min/mile
2156 ALLISSA THOMPSON 32 F HALF MARATHON OCEANSIDE CA 01:34:30 01:34:34 44 4 1 07:12 min/mile
1869 entrants …

Winners

Tip: Slide the results table left and right to view more.
Overall
Bib Name Age Gender Division City State Chip Elapsed Time Gun Elapsed Time Div Place Gender Place Age Place Pace
3225 LARIOS X 40 M Half Marathon GRANADA HILLS MA 01:15:38 01:15:38 1 1 1 05:46 min/mile
3105 ADAM HENRY 28 M Half Marathon LOS ANGELES CA 01:17:54 01:17:54 2 2 1 05:56 min/mile
904 SHAWN WACO 42 M Half Marathon SANTA MONICA CA 01:18:09 01:18:09 3 3 2 05:57 min/mile
2791 SARAH ATTAR 21 F Half Marathon ESCONDIDO CA 01:31:34 01:31:36 30 1 1 06:59 min/mile
1090 ELIZABETH LLUCH 52 F Half Marathon AGORA HILLS CA 01:33:30 01:33:32 40 2 1 07:08 min/mile
1557 ALLISON JORGENSEN 25 F Half Marathon SEATTLE WA 01:33:41 01:33:41 41 3 1 07:09 min/mile
1 - 15
Bib Name Age Gender Division City State Chip Elapsed Time Gun Elapsed Time Div Place Gender Place Age Place Pace
3212 GONZALES ALFREDO 14 M Half Marathon PALM SPRING CA 01:33:05 01:33:05 38 37 1 07:06 min/mile
3213 MIGIUEL MALTONADO 15 M Half Marathon CATHEDRAL CITY CA 01:45:23 01:45:43 174 136 2 08:02 min/mile
2496 ANDERSON NEWMAN 13 M Half Marathon MALIBU CA 02:02:03 02:04:24 498 292 3 09:19 min/mile
3210 SOPHIA GENTILE 14 F Half Marathon PALM SPRINGS CA 01:49:20 01:49:40 238 63 1 08:20 min/mile
3211 OLIVIA LEWKE 15 F Half Marathon CATHEDRAL CITY CA 02:05:29 02:05:51 574 248 2 09:34 min/mile
2214 SARAH WHITE 15 F Half Marathon 02:15:23 02:16:46 837 427 3 10:20 min/mile
2650 ALEXIE RODRIGUEZ 13 F Half Marathon 03:39:32 03:42:58 1791 1153 4 16:45 min/mile
16 - 19
Bib Name Age Gender Division City State Chip Elapsed Time Gun Elapsed Time Div Place Gender Place Age Place Pace
3258 ALEC WILIMOSKY 16 M Half Marathon MALIBU CA 01:28:41 01:28:42 14 14 1 06:46 min/mile
2630 NICHOLAS ROMMELFANGER 16 M Half Marathon THOUSAND OAKS CA 01:39:45 01:40:01 88 69 2 07:36 min/mile
2610 SHANE GRIFFEE 19 M Half Marathon OJAI CA 01:53:29 01:54:52 303 210 3 08:39 min/mile
2620 LOGAN CHILDERS 19 M Half Marathon 01:56:23 01:56:49 374 246 4 08:53 min/mile
2772 AIDEN PASCUCCI 17 M Half Marathon MALIBU CA 02:02:12 02:02:12 504 297 5 09:19 min/mile
2470 NATALIA BEHNKEN 19 F Half Marathon OGDEN UT 01:47:16 01:48:23 208 53 1 08:11 min/mile
1452 KIMBERLY ONA AYALA 19 F Half Marathon CLAREMONT CA 01:47:19 01:47:58 210 55 2 08:11 min/mile
2291 ALEX ARNETT 19 F Half Marathon PASADENA CA 01:52:38 01:54:01 284 86 3 08:35 min/mile
3209 VICKI COOK 16 F Half Marathon 01:52:55 01:53:16 292 89 4 08:37 min/mile
3303 ALEXANDRIA EVANS 19 F Half Marathon SEATTLE WA 01:54:56 01:54:56 332 107 5 08:46 min/mile
20 - 24
Bib Name Age Gender Division City State Chip Elapsed Time Gun Elapsed Time Div Place Gender Place Age Place Pace
2704 ANDREW KAEHR 23 M Half Marathon TEMPE AZ 01:19:45 01:19:45 5 5 1 06:05 min/mile
2909 NICHOLAS KATZ 23 M Half Marathon MALIBU CA 01:24:32 01:24:32 9 9 2 06:27 min/mile
2080 STEPHEN SHIRK 24 M Half Marathon SANTA MONICA CA 01:32:20 01:34:24 31 30 3 07:02 min/mile
2303 TIMOTHY SMITH 24 M Half Marathon MARINA DEL REY CA 01:32:47 01:33:44 34 33 4 07:04 min/mile
2664 RYAN KEPLER 24 M Half Marathon LEWISTOWN MT 01:33:01 01:36:22 37 36 5 07:06 min/mile
2791 SARAH ATTAR 21 F Half Marathon ESCONDIDO CA 01:31:34 01:31:36 30 1 1 06:59 min/mile
2623 AUGUSTA WISE 24 F Half Marathon LOS ANGELES CA 01:35:57 01:35:59 53 8 2 07:19 min/mile
2221 KELLY OWEN 22 F Half Marathon MALIBU CA 01:36:04 01:36:21 55 9 3 07:20 min/mile
2165 KYLA SHERWOOD 23 F Half Marathon LOS ANGELES CA 01:39:30 01:40:28 85 18 4 07:35 min/mile
2016 KAYLA KERRIGAN 24 F Half Marathon SAN CLEMENTE CA 01:42:57 01:43:26 139 28 5 07:51 min/mile
25 - 29
Bib Name Age Gender Division City State Chip Elapsed Time Gun Elapsed Time Div Place Gender Place Age Place Pace
3105 ADAM HENRY 28 M Half Marathon LOS ANGELES CA 01:17:54 01:17:54 2 2 1 05:56 min/mile
2013 KEVIN DEAN 27 M Half Marathon GRANVILLE OH 01:19:54 01:19:54 6 6 2 06:05 min/mile
462 MATTHEW MEINEMA 27 M Half Marathon 01:24:29 01:24:31 8 8 3 06:26 min/mile
2429 SAMUEL MINER 29 M Half Marathon LOS ANGELES CA 01:28:48 01:28:51 17 17 4 06:46 min/mile
2984 JEREMY HANSEN 27 M Half Marathon SHORELINE WA 01:31:07 01:31:07 28 28 5 06:57 min/mile
1557 ALLISON JORGENSEN 25 F Half Marathon SEATTLE WA 01:33:41 01:33:41 41 3 1 07:09 min/mile
1875 PATTI RAMOS 26 F Half Marathon NOVI MI 01:35:47 01:36:10 51 7 2 07:18 min/mile
3260 LAUREN PHILLIPS 28 F Half Marathon 01:37:40 01:37:58 69 13 3 07:27 min/mile
1757 ELIZABETH DALTON 27 F Half Marathon LOS ANGELES CA 01:38:03 01:38:55 72 14 4 07:29 min/mile
2359 VICTORIA HSU 27 F Half Marathon LOS ANGELES CA 01:38:03 01:38:32 73 15 5 07:29 min/mile
30 - 34
Bib Name Age Gender Division City State Chip Elapsed Time Gun Elapsed Time Div Place Gender Place Age Place Pace
916 RUDY TOVAR 33 M Half Marathon SALINAS CA 01:19:22 01:19:22 4 4 1 06:03 min/mile
902 JENSON BUTTON 33 M Half Marathon GUERNSEY 01:21:53 01:21:53 7 7 2 06:15 min/mile
915 AINSLEE SHAFTO 32 M Half Marathon ALTRINCHAM CHESHIRE 01:27:15 01:27:23 11 11 3 06:39 min/mile
906 MIKE GOBELI 33 M Half Marathon LOS ANGELES CA 01:28:48 01:28:49 16 16 4 06:46 min/mile
2999 MICHAEL COLLIER 33 M Half Marathon GUERNSEY 01:30:30 01:30:30 21 21 5 06:54 min/mile
2156 ALLISSA THOMPSON 32 F Half Marathon OCEANSIDE CA 01:34:30 01:34:34 44 4 1 07:12 min/mile
907 CYNTHIA ZARATE 34 F Half Marathon LOS ANGELES CA 01:36:07 01:36:08 57 11 2 07:20 min/mile
2798 HEATHER LEWIS 31 F Half Marathon SANTA MONICA CA 01:40:52 01:41:53 102 21 3 07:41 min/mile
2302 AUDREY JING FABER 33 F Half Marathon SANTA MONICA CA 01:41:07 01:41:29 109 23 4 07:43 min/mile
2278 OLIVIA ALBRECHT 30 F Half Marathon NEWPORT COAST CA 01:43:29 01:44:01 148 31 5 07:53 min/mile
35 - 39
Bib Name Age Gender Division City State Chip Elapsed Time Gun Elapsed Time Div Place Gender Place Age Place Pace
2765 YU YUMOTO 35 M Half Marathon 01:26:21 01:26:21 10 10 1 06:35 min/mile
905 CRISPIN LAZARIT 39 M Half Marathon LOS ANGELES CA 01:28:50 01:28:50 19 19 2 06:46 min/mile
3240 CLEMENTINE ALVAREZ 36 M Half Marathon 01:30:25 01:30:27 20 20 3 06:54 min/mile
1448 RON CAREY 38 M Half Marathon CULVER CITY CA 01:30:44 01:33:03 26 26 4 06:55 min/mile
3017 JOSHUA EADY 36 M Half Marathon 01:36:14 01:36:17 59 48 5 07:20 min/mile
3070 JAIME WOOTEN 36 F Half Marathon THOUSAND OAKS CA 01:35:17 01:35:18 47 5 1 07:16 min/mile
980 KIYOKO IKEUCHI 36 F Half Marathon MOUNTAIN VIEW CA 01:36:31 01:36:32 61 12 2 07:22 min/mile
1102 CHRISTINE VOITA 36 F Half Marathon SURPRISE AZ 01:39:34 01:39:41 87 19 3 07:36 min/mile
1961 KAREN FAULHABER 36 F Half Marathon THOUSAND OAKS CA 01:41:05 01:41:29 107 22 4 07:42 min/mile
2022 NANCY ALPERT 37 F Half Marathon 01:48:01 01:48:26 218 59 5 08:14 min/mile
40 - 44
Bib Name Age Gender Division City State Chip Elapsed Time Gun Elapsed Time Div Place Gender Place Age Place Pace
3225 LARIOS X 40 M Half Marathon GRANADA HILLS MA 01:15:38 01:15:38 1 1 1 05:46 min/mile
904 SHAWN WACO 42 M Half Marathon SANTA MONICA CA 01:18:09 01:18:09 3 3 2 05:57 min/mile
2023 TED MCDONALD 43 M Half Marathon 01:27:34 01:27:38 12 12 3 06:41 min/mile
3185 MARK GLOVER 40 M Half Marathon LOS ANGELES CA 01:28:11 01:28:22 13 13 4 06:43 min/mile
2782 JANO SOTO 43 M Half Marathon VERACRUZ 01:28:44 01:28:44 15 15 5 06:46 min/mile
2216 EVELYN GONZALES 41 F Half Marathon WESTLAKE VILLAGE CA 01:35:32 01:35:38 49 6 1 07:17 min/mile
3055 JOANNA DELLA GATTA 40 F Half Marathon CAMARILLO CA 01:36:06 01:36:20 56 10 2 07:20 min/mile
1141 SHARON ADAM 44 F Half Marathon CUPERTINO CA 01:38:42 01:38:44 80 16 3 07:32 min/mile
3163 KRISTEN VAN ROOYEN 43 F Half Marathon PASADENA CA 01:39:23 01:39:55 84 17 4 07:35 min/mile
3036 LYNAIR BEILENSON 44 F Half Marathon ENCINO CA 01:40:44 01:40:59 99 20 5 07:41 min/mile
45 - 49
Bib Name Age Gender Division City State Chip Elapsed Time Gun Elapsed Time Div Place Gender Place Age Place Pace
3241 JAVIER FERNANDEZ 45 M Half Marathon 01:35:16 01:35:20 45 41 1 07:16 min/mile
2712 JASON DOCTOR 45 M Half Marathon CALABASAS CA 01:35:16 01:35:32 46 42 2 07:16 min/mile
972 ERIK BLAINE 46 M Half Marathon NEWBURY PARK CA 01:37:28 01:37:35 67 55 3 07:26 min/mile
1528 DANIEL NELSON 47 M Half Marathon BURBANK CA 01:38:15 01:38:17 74 59 4 07:30 min/mile
1299 KLAUS TRITSCHLER 46 M Half Marathon MALIBU CA 01:40:47 01:41:36 100 80 5 07:41 min/mile
1002 MONA FIERRO 47 F Half Marathon CORONA CA 01:41:30 01:51:27 113 24 1 07:44 min/mile
2920 SARA JONES 45 F Half Marathon MOORPARK CA 01:44:56 01:45:16 169 38 2 08:00 min/mile
2128 DESIREE SHIER 45 F Half Marathon GLENDALE CA 01:45:38 01:45:43 182 40 3 08:03 min/mile
1909 JOELL QUIRARTE 46 F Half Marathon THOUSAND OAKS CA 01:46:53 01:47:23 201 50 4 08:09 min/mile
3037 KIM BRETTLER 49 F Half Marathon LOS ANGELES CA 01:49:05 01:49:20 235 62 5 08:19 min/mile
50 - 54
Bib Name Age Gender Division City State Chip Elapsed Time Gun Elapsed Time Div Place Gender Place Age Place Pace
1224 ROLF DENSING 54 M Half Marathon RHEINBREITBACH 01:32:55 01:33:03 36 35 1 07:05 min/mile
2687 STEVEN STENBERG 53 M Half Marathon NOVATO CA 01:33:56 01:33:58 42 39 2 07:10 min/mile
3203 TEDD MORGAN 51 M Half Marathon WINONA MN 01:35:22 01:35:57 48 43 3 07:16 min/mile
3255 IYOB TESSEMA 50 M Half Marathon LOS ANGELES CA 01:41:22 01:41:22 112 89 4 07:44 min/mile
1396 JEFF FUJIMOTO 50 M Half Marathon GARDENA CA 01:44:23 01:45:21 160 127 5 07:58 min/mile
1090 ELIZABETH LLUCH 52 F Half Marathon AGORA HILLS CA 01:33:30 01:33:32 40 2 1 07:08 min/mile
2684 HELENA LITTLE 51 F Half Marathon MALIBU CA 01:43:24 01:43:52 144 29 2 07:53 min/mile
2207 ROSA CAMERON 52 F Half Marathon OXNARD CA 01:44:51 01:47:07 166 36 3 08:00 min/mile
3027 AMY RAPPAPORT 52 F Half Marathon CALIFON NJ 01:47:19 01:47:25 209 54 4 08:11 min/mile
2511 JOANN LYNNE 54 F Half Marathon MALIBU CA 01:48:07 01:48:09 224 60 5 08:15 min/mile
55 - 59
Bib Name Age Gender Division City State Chip Elapsed Time Gun Elapsed Time Div Place Gender Place Age Place Pace
3068 GARRETT D'ALESSANDRO 55 M Half Marathon CALIFON NJ 01:30:54 01:35:07 27 27 1 06:56 min/mile
1237 RUSS MANIES 56 M Half Marathon BEND OR 01:40:10 01:40:14 95 76 2 07:38 min/mile
3204 DAVID MEADOR 55 M Half Marathon 01:41:06 01:54:28 108 86 3 07:43 min/mile
2613 VICTOR MILLS 58 M Half Marathon TO CA 01:56:42 01:56:51 379 248 4 08:54 min/mile
3232 DAVID MEADOR 55 M Half Marathon CAMARILLO CA 01:58:36 01:59:46 424 262 5 09:03 min/mile
1017 ELLEN MCCULLOUGH 55 F Half Marathon LOS GATOS CA 01:45:30 01:46:09 176 39 1 08:03 min/mile
2381 TANYA AUSTIN 57 F Half Marathon COMOX BRITISH COLUMBIA 01:58:52 01:59:48 429 166 2 09:04 min/mile
2073 PATTY DURAZO 57 F Half Marathon TRABUCO CANYON CA 01:59:41 02:00:19 443 174 3 09:08 min/mile
1130 JO ANN SLATER 56 F Half Marathon 02:02:29 02:03:17 514 215 4 09:20 min/mile
2162 KARI VAN GUNDY 56 F Half Marathon CHATSWORTH CA 02:06:48 02:06:49 599 260 5 09:40 min/mile
60 - 64
Bib Name Age Gender Division City State Chip Elapsed Time Gun Elapsed Time Div Place Gender Place Age Place Pace
1099 JEAN LAROCHE 60 M Half Marathon LOS ANGELES CA 01:40:03 01:40:03 92 73 1 07:38 min/mile
1051 CARLOS LLUCH 61 M Half Marathon AGOURA HILLS CA 01:40:54 01:40:56 105 84 2 07:42 min/mile
45 LARRY COHEN 60 M Half Marathon COLORADO SPRINGS CO 01:53:07 01:55:58 297 207 3 08:38 min/mile
2453 SAM FISHER 64 M Half Marathon BOONE IA 01:59:53 02:00:42 450 272 4 09:09 min/mile
2424 JOSEPH SESTAY 62 M Half Marathon WRIGHTWOOD CA 02:05:44 02:06:10 584 333 5 09:35 min/mile
1040 SUZANNE STRINGFELLOW 61 F Half Marathon YORBA LINDA CA 01:56:49 01:57:53 383 133 1 08:55 min/mile
1713 CHRISTINE ROPER 61 F Half Marathon IPSWICH UNITED KINGDOM 01:58:03 01:59:34 409 151 2 09:00 min/mile
1649 PAULA GOLDFARB 62 F Half Marathon 02:11:23 02:16:39 715 338 3 10:01 min/mile
1077 ROBIN SOLIS 61 F Half Marathon NEWBURY PARK CA 02:13:26 02:14:46 782 386 4 10:11 min/mile
1529 MAGGIE MCPHEETERS 61 F Half Marathon SAN DIEGO CA 02:14:20 02:15:39 806 406 5 10:15 min/mile
65 - 69
Bib Name Age Gender Division City State Chip Elapsed Time Gun Elapsed Time Div Place Gender Place Age Place Pace
2527 ALBERT YANEZ 69 M Half Marathon MISSION HILLS CA 02:02:47 02:03:51 523 304 1 09:22 min/mile
1081 WARREN MULLISEN 69 M Half Marathon CULVER CITY CA 02:05:56 02:06:17 587 336 2 09:36 min/mile
2343 HAROLD SMITH 67 M Half Marathon GLEN MILLS PA 02:06:54 02:13:53 600 340 3 09:41 min/mile
2940 MARK MCELREATH 69 M Half Marathon WASHINGTON DC 02:47:49 02:49:11 1454 571 4 12:48 min/mile
1929 SIMON JR FLORES 65 M Half Marathon LANCASTER CA 03:19:41 03:22:57 1716 625 5 15:14 min/mile
1335 PAULETTE COLE 65 F Half Marathon BURBANK CA 02:46:43 02:47:08 1440 873 1 12:43 min/mile
3093 DARIA KELLEY 65 F Half Marathon ENCINO CA 03:11:54 03:15:04 1669 1056 2 14:38 min/mile
2132 LINDA MARTIN-OVADIA 65 F Half Marathon CAMARILLO CA 03:20:59 03:22:37 1723 1096 3 15:20 min/mile
2945 BO WIERCIGROCH 67 F Half Marathon PASADENA CA 03:29:57 03:31:26 1756 1125 4 16:01 min/mile
2113 JANICE HAGER 65 F Half Marathon THOUSAND OAKS CA 03:32:54 03:35:52 1767 1134 5 16:15 min/mile
70 - 97
Bib Name Age Gender Division City State Chip Elapsed Time Gun Elapsed Time Div Place Gender Place Age Place Pace
1775 RICHARD DI BACCO 70 M Half Marathon 02:31:12 02:31:25 1204 506 1 11:32 min/mile
2533 TERRY RHODES 73 M Half Marathon ROLLING HILLS CA 02:31:59 02:32:59 1221 511 2 11:36 min/mile
2006 JOSEPH JASIK 70 M Half Marathon NEWHALL CA 02:57:25 02:59:52 1554 589 3 13:32 min/mile
2750 JOE CIRILLO 73 M Half Marathon PACIFIC PALISADES CA 03:09:05 03:12:01 1655 612 4 14:26 min/mile
2677 WILLIAM MCCULLOUGH 70 M Half Marathon TAMPA FL 03:42:13 03:44:41 1801 641 5 16:57 min/mile
1042 LAUREL BAKER 70 F Half Marathon ORANGE CA 03:03:03 03:04:15 1606 1005 1 13:58 min/mile
2640 BARBARA SCHNEIDER 73 F Half Marathon TORRANCE CA 03:26:01 03:26:55 1746 1117 2 15:43 min/mile
1049 ARDATH SWEENEY 73 F Half Marathon SALT LAKE CITY UT 03:32:28 03:33:40 1765 1132 3 16:13 min/mile
98 - 99
Bib Name Age Gender Division City State Chip Elapsed Time Gun Elapsed Time Div Place Gender Place Age Place Pace

Race Info

Participants:
2407
Last Updated:
12/4/2013 11:08:38 PM
NOTE: The times for the half marathon have been adjusted down to reflect that the course was .38 of a mile long.
Tip: Slide the results table left and right to view more.

Search for Name, Bib, City, State or Team
in the field above… by clicking the icon below…

Race Statistics

dq - 1


Male
Total Finishers Avg Pace
1 00:00

Female
Total Finishers Avg Pace
0 00:00

OC1 - 1


Male
Total Finishers Avg Pace
1 00:00

Female
Total Finishers Avg Pace
0 00:00

dns - 0


Male
Total Finishers Avg Pace
0 00:00

Female
Total Finishers Avg Pace
0 00:00

Full Marathon - 472


Male
Total Finishers Avg Pace
249 10:21

Female
Total Finishers Avg Pace
223 11:01

Half Marathon - 1869


Male
Total Finishers Avg Pace
653 10:02

Female
Total Finishers Avg Pace
1216 11:38

SUPathlon - 56


Male
Total Finishers Avg Pace
34 09:25

Female
Total Finishers Avg Pace
22 11:13

Have a question or need to make a correction?

Submit a Result Correction